sensor_id;sensor_type;location;lat;lon;timestamp;temperature;humidity
9033;DHT22;4551;53.164;8.210;2022-08-11T00:02:28;20.90;99.90
9033;DHT22;4551;53.164;8.210;2022-08-11T00:05:04;20.90;99.90
9033;DHT22;4551;53.164;8.210;2022-08-11T00:07:34;20.80;99.90
9033;DHT22;4551;53.164;8.210;2022-08-11T00:10:10;20.80;99.90
9033;DHT22;4551;53.164;8.210;2022-08-11T00:12:40;20.80;99.90
9033;DHT22;4551;53.164;8.210;2022-08-11T00:15:10;20.80;99.90
9033;DHT22;4551;53.164;8.210;2022-08-11T00:17:40;20.70;99.90
9033;DHT22;4551;53.164;8.210;2022-08-11T00:20:11;20.70;99.90
9033;DHT22;4551;53.164;8.210;2022-08-11T00:22:45;20.70;99.90
9033;DHT22;4551;53.164;8.210;2022-08-11T00:25:16;20.60;99.90
9033;DHT22;4551;53.164;8.210;2022-08-11T00:27:46;20.60;99.90
9033;DHT22;4551;53.164;8.210;2022-08-11T00:30:15;20.60;99.90
9033;DHT22;4551;53.164;8.210;2022-08-11T00:32:53;20.50;99.90
9033;DHT22;4551;53.164;8.210;2022-08-11T00:35:26;20.50;99.90
9033;DHT22;4551;53.164;8.210;2022-08-11T00:38:16;20.50;99.90
9033;DHT22;4551;53.164;8.210;2022-08-11T00:40:54;20.50;99.90
9033;DHT22;4551;53.164;8.210;2022-08-11T00:43:37;20.50;99.90
9033;DHT22;4551;53.164;8.210;2022-08-11T00:46:13;20.40;99.90
9033;DHT22;4551;53.164;8.210;2022-08-11T00:49:01;20.40;99.90
9033;DHT22;4551;53.164;8.210;2022-08-11T00:51:52;20.30;99.90
9033;DHT22;4551;53.164;8.210;2022-08-11T00:55:09;20.30;99.90
9033;DHT22;4551;53.164;8.210;2022-08-11T01:01:09;20.20;99.90
9033;DHT22;4551;53.164;8.210;2022-08-11T01:04:10;20.10;99.90
9033;DHT22;4551;53.164;8.210;2022-08-11T01:07:09;20.10;99.90
9033;DHT22;4551;53.164;8.210;2022-08-11T01:10:13;20.10;99.90
9033;DHT22;4551;53.164;8.210;2022-08-11T01:13:01;20.10;99.90
9033;DHT22;4551;53.164;8.210;2022-08-11T01:16:16;20.10;99.90
9033;DHT22;4551;53.164;8.210;2022-08-11T01:29:05;20.00;99.90
9033;DHT22;4551;53.164;8.210;2022-08-11T01:32:01;19.90;99.90
9033;DHT22;4551;53.164;8.210;2022-08-11T01:38:29;19.90;99.90
9033;DHT22;4551;53.164;8.210;2022-08-11T01:41:33;19.80;99.90
9033;DHT22;4551;53.164;8.210;2022-08-11T01:47:38;19.70;99.90
9033;DHT22;4551;53.164;8.210;2022-08-11T01:50:34;19.70;99.90
9033;DHT22;4551;53.164;8.210;2022-08-11T01:53:14;19.70;99.90
9033;DHT22;4551;53.164;8.210;2022-08-11T01:55:51;19.70;99.90
9033;DHT22;4551;53.164;8.210;2022-08-11T01:58:30;19.70;99.90
9033;DHT22;4551;53.164;8.210;2022-08-11T02:01:29;19.60;99.90
9033;DHT22;4551;53.164;8.210;2022-08-11T02:04:14;19.60;99.90
9033;DHT22;4551;53.164;8.210;2022-08-11T02:06:49;19.50;99.90
9033;DHT22;4551;53.164;8.210;2022-08-11T02:09:37;19.50;99.90
9033;DHT22;4551;53.164;8.210;2022-08-11T02:15:25;19.40;99.90
9033;DHT22;4551;53.164;8.210;2022-08-11T02:18:04;19.40;99.90
9033;DHT22;4551;53.164;8.210;2022-08-11T02:20:42;19.40;99.90
9033;DHT22;4551;53.164;8.210;2022-08-11T02:23:45;19.30;99.90
9033;DHT22;4551;53.164;8.210;2022-08-11T02:26:37;19.30;99.90
9033;DHT22;4551;53.164;8.210;2022-08-11T02:29:13;19.30;99.90
9033;DHT22;4551;53.164;8.210;2022-08-11T02:31:51;19.20;99.90
9033;DHT22;4551;53.164;8.210;2022-08-11T02:35:03;19.20;99.90
9033;DHT22;4551;53.164;8.210;2022-08-11T02:37:43;19.20;99.90
9033;DHT22;4551;53.164;8.210;2022-08-11T02:40:23;19.20;99.90
9033;DHT22;4551;53.164;8.210;2022-08-11T02:43:06;19.10;99.90
9033;DHT22;4551;53.164;8.210;2022-08-11T02:45:47;19.10;99.90
9033;DHT22;4551;53.164;8.210;2022-08-11T02:48:28;19.00;99.90
9033;DHT22;4551;53.164;8.210;2022-08-11T02:51:25;19.00;99.90
9033;DHT22;4551;53.164;8.210;2022-08-11T02:54:02;19.00;99.90
9033;DHT22;4551;53.164;8.210;2022-08-11T02:56:44;18.90;99.90
9033;DHT22;4551;53.164;8.210;2022-08-11T02:59:34;18.90;99.90
9033;DHT22;4551;53.164;8.210;2022-08-11T03:02:29;18.90;99.90
9033;DHT22;4551;53.164;8.210;2022-08-11T03:05:04;18.80;99.90
9033;DHT22;4551;53.164;8.210;2022-08-11T03:07:43;18.80;99.90
9033;DHT22;4551;53.164;8.210;2022-08-11T03:10:21;18.80;99.90
9033;DHT22;4551;53.164;8.210;2022-08-11T03:12:59;18.80;99.90
9033;DHT22;4551;53.164;8.210;2022-08-11T03:15:48;18.80;99.90
9033;DHT22;4551;53.164;8.210;2022-08-11T03:18:40;18.70;99.90
9033;DHT22;4551;53.164;8.210;2022-08-11T03:21:16;18.70;99.90
9033;DHT22;4551;53.164;8.210;2022-08-11T03:23:52;18.60;99.90
9033;DHT22;4551;53.164;8.210;2022-08-11T03:26:27;18.60;99.90
9033;DHT22;4551;53.164;8.210;2022-08-11T03:29:05;18.60;99.90
9033;DHT22;4551;53.164;8.210;2022-08-11T03:31:43;18.60;99.90
9033;DHT22;4551;53.164;8.210;2022-08-11T03:34:16;18.50;99.90
9033;DHT22;4551;53.164;8.210;2022-08-11T03:37:17;18.50;99.90
9033;DHT22;4551;53.164;8.210;2022-08-11T03:40:09;18.50;99.90
9033;DHT22;4551;53.164;8.210;2022-08-11T03:42:45;18.40;99.90
9033;DHT22;4551;53.164;8.210;2022-08-11T03:45:22;18.40;99.90
9033;DHT22;4551;53.164;8.210;2022-08-11T03:48:02;18.40;99.90
9033;DHT22;4551;53.164;8.210;2022-08-11T03:50:54;18.30;99.90
9033;DHT22;4551;53.164;8.210;2022-08-11T03:53:41;18.30;99.90
9033;DHT22;4551;53.164;8.210;2022-08-11T03:56:43;18.30;99.90
9033;DHT22;4551;53.164;8.210;2022-08-11T04:00:03;18.30;99.90
9033;DHT22;4551;53.164;8.210;2022-08-11T04:02:56;18.30;99.90
9033;DHT22;4551;53.164;8.210;2022-08-11T04:12:18;18.10;99.90
9033;DHT22;4551;53.164;8.210;2022-08-11T04:15:36;18.10;99.90
9033;DHT22;4551;53.164;8.210;2022-08-11T04:25:28;18.10;99.90
9033;DHT22;4551;53.164;8.210;2022-08-11T04:28:32;18.10;99.90
9033;DHT22;4551;53.164;8.210;2022-08-11T04:31:37;18.00;99.90
9033;DHT22;4551;53.164;8.210;2022-08-11T04:34:43;18.00;99.90
9033;DHT22;4551;53.164;8.210;2022-08-11T04:37:42;18.00;99.90
9033;DHT22;4551;53.164;8.210;2022-08-11T04:40:47;18.00;99.90
9033;DHT22;4551;53.164;8.210;2022-08-11T04:46:56;18.00;99.90
9033;DHT22;4551;53.164;8.210;2022-08-11T04:49:40;18.00;99.90
9033;DHT22;4551;53.164;8.210;2022-08-11T04:56:08;18.00;99.90
9033;DHT22;4551;53.164;8.210;2022-08-11T04:59:30;18.00;99.90
9033;DHT22;4551;53.164;8.210;2022-08-11T05:05:52;18.00;99.90
9033;DHT22;4551;53.164;8.210;2022-08-11T05:08:59;18.10;99.90
9033;DHT22;4551;53.164;8.210;2022-08-11T05:11:58;18.10;99.90
9033;DHT22;4551;53.164;8.210;2022-08-11T05:14:32;18.10;99.90
9033;DHT22;4551;53.164;8.210;2022-08-11T05:17:35;18.20;99.90
9033;DHT22;4551;53.164;8.210;2022-08-11T05:20:24;18.20;99.90
9033;DHT22;4551;53.164;8.210;2022-08-11T05:23:12;18.30;99.90
9033;DHT22;4551;53.164;8.210;2022-08-11T05:26:01;18.30;99.90
9033;DHT22;4551;53.164;8.210;2022-08-11T05:29:25;18.40;99.90
9033;DHT22;4551;53.164;8.210;2022-08-11T05:32:15;18.40;99.90
9033;DHT22;4551;53.164;8.210;2022-08-11T05:35:04;18.50;99.90
9033;DHT22;4551;53.164;8.210;2022-08-11T05:37:40;18.50;99.90
9033;DHT22;4551;53.164;8.210;2022-08-11T05:40:20;18.50;99.90
9033;DHT22;4551;53.164;8.210;2022-08-11T05:43:11;18.60;99.90
9033;DHT22;4551;53.164;8.210;2022-08-11T05:45:59;18.60;99.90
9033;DHT22;4551;53.164;8.210;2022-08-11T05:48:45;18.60;99.90
9033;DHT22;4551;53.164;8.210;2022-08-11T05:51:36;18.70;99.90
9033;DHT22;4551;53.164;8.210;2022-08-11T05:54:31;18.70;99.90
9033;DHT22;4551;53.164;8.210;2022-08-11T05:57:24;18.80;99.90
9033;DHT22;4551;53.164;8.210;2022-08-11T06:00:15;18.80;99.90
9033;DHT22;4551;53.164;8.210;2022-08-11T06:02:45;18.90;99.90
9033;DHT22;4551;53.164;8.210;2022-08-11T06:05:15;18.90;99.90
9033;DHT22;4551;53.164;8.210;2022-08-11T06:07:46;19.00;99.90
9033;DHT22;4551;53.164;8.210;2022-08-11T06:10:27;19.00;99.90
9033;DHT22;4551;53.164;8.210;2022-08-11T06:12:58;19.10;99.90
9033;DHT22;4551;53.164;8.210;2022-08-11T06:15:30;19.10;99.90
9033;DHT22;4551;53.164;8.210;2022-08-11T06:18:01;19.20;99.90
9033;DHT22;4551;53.164;8.210;2022-08-11T06:20:30;19.20;99.90
9033;DHT22;4551;53.164;8.210;2022-08-11T06:23:05;19.30;99.90
9033;DHT22;4551;53.164;8.210;2022-08-11T06:25:36;19.30;99.90
9033;DHT22;4551;53.164;8.210;2022-08-11T06:28:07;19.40;99.90
9033;DHT22;4551;53.164;8.210;2022-08-11T06:30:38;19.40;99.90
9033;DHT22;4551;53.164;8.210;2022-08-11T06:33:10;19.40;99.90
9033;DHT22;4551;53.164;8.210;2022-08-11T06:35:47;19.50;99.90
9033;DHT22;4551;53.164;8.210;2022-08-11T06:38:36;19.50;99.90
9033;DHT22;4551;53.164;8.210;2022-08-11T06:41:17;19.60;99.90
9033;DHT22;4551;53.164;8.210;2022-08-11T06:44:14;19.60;99.90
9033;DHT22;4551;53.164;8.210;2022-08-11T06:46:45;19.60;99.90
9033;DHT22;4551;53.164;8.210;2022-08-11T06:49:15;19.70;99.90
9033;DHT22;4551;53.164;8.210;2022-08-11T06:52:05;19.70;99.90
9033;DHT22;4551;53.164;8.210;2022-08-11T06:54:54;19.80;99.90
9033;DHT22;4551;53.164;8.210;2022-08-11T06:57:32;19.80;99.90
9033;DHT22;4551;53.164;8.210;2022-08-11T07:00:20;19.90;99.90
9033;DHT22;4551;53.164;8.210;2022-08-11T07:03:02;19.90;99.90
9033;DHT22;4551;53.164;8.210;2022-08-11T07:05:40;20.00;99.90
9033;DHT22;4551;53.164;8.210;2022-08-11T07:08:29;20.00;99.90
9033;DHT22;4551;53.164;8.210;2022-08-11T07:11:43;20.10;99.90
9033;DHT22;4551;53.164;8.210;2022-08-11T07:14:34;20.10;99.90
9033;DHT22;4551;53.164;8.210;2022-08-11T07:17:29;20.20;99.90
9033;DHT22;4551;53.164;8.210;2022-08-11T07:20:00;20.30;99.90
9033;DHT22;4551;53.164;8.210;2022-08-11T07:22:54;20.30;99.90
9033;DHT22;4551;53.164;8.210;2022-08-11T07:25:42;20.40;99.90
9033;DHT22;4551;53.164;8.210;2022-08-11T07:28:30;20.50;99.90
9033;DHT22;4551;53.164;8.210;2022-08-11T07:31:25;20.60;99.90
9033;DHT22;4551;53.164;8.210;2022-08-11T07:34:04;20.70;99.90
9033;DHT22;4551;53.164;8.210;2022-08-11T07:36:46;20.70;99.90
9033;DHT22;4551;53.164;8.210;2022-08-11T07:39:19;20.80;99.90
9033;DHT22;4551;53.164;8.210;2022-08-11T07:41:49;20.90;99.90
9033;DHT22;4551;53.164;8.210;2022-08-11T07:44:18;21.00;99.90
9033;DHT22;4551;53.164;8.210;2022-08-11T07:46:48;21.00;99.90
9033;DHT22;4551;53.164;8.210;2022-08-11T07:49:37;21.10;99.90
9033;DHT22;4551;53.164;8.210;2022-08-11T07:52:27;21.20;99.90
9033;DHT22;4551;53.164;8.210;2022-08-11T07:54:58;21.20;99.90
9033;DHT22;4551;53.164;8.210;2022-08-11T07:57:30;21.30;99.90
9033;DHT22;4551;53.164;8.210;2022-08-11T08:00:37;21.40;99.90
9033;DHT22;4551;53.164;8.210;2022-08-11T08:03:28;21.40;99.90
9033;DHT22;4551;53.164;8.210;2022-08-11T08:06:22;21.50;99.90
9033;DHT22;4551;53.164;8.210;2022-08-11T08:09:09;21.70;99.90
9033;DHT22;4551;53.164;8.210;2022-08-11T08:11:58;21.80;99.90
9033;DHT22;4551;53.164;8.210;2022-08-11T08:14:44;21.90;99.90
9033;DHT22;4551;53.164;8.210;2022-08-11T08:17:31;21.90;99.90
9033;DHT22;4551;53.164;8.210;2022-08-11T08:20:38;22.00;99.90
9033;DHT22;4551;53.164;8.210;2022-08-11T08:23:08;22.10;99.90
9033;DHT22;4551;53.164;8.210;2022-08-11T08:25:38;22.20;99.90
9033;DHT22;4551;53.164;8.210;2022-08-11T08:28:10;22.30;99.90
9033;DHT22;4551;53.164;8.210;2022-08-11T08:30:40;22.30;99.90
9033;DHT22;4551;53.164;8.210;2022-08-11T08:33:19;22.40;99.90
9033;DHT22;4551;53.164;8.210;2022-08-11T08:35:50;22.50;99.90
9033;DHT22;4551;53.164;8.210;2022-08-11T08:38:41;22.60;99.90
9033;DHT22;4551;53.164;8.210;2022-08-11T08:41:10;22.70;99.90
9033;DHT22;4551;53.164;8.210;2022-08-11T08:43:43;22.70;99.90
9033;DHT22;4551;53.164;8.210;2022-08-11T08:46:18;22.80;99.90
9033;DHT22;4551;53.164;8.210;2022-08-11T08:48:48;22.80;99.90
9033;DHT22;4551;53.164;8.210;2022-08-11T08:51:20;22.90;99.90
9033;DHT22;4551;53.164;8.210;2022-08-11T08:54:32;23.00;99.90
9033;DHT22;4551;53.164;8.210;2022-08-11T08:57:04;23.10;99.90
9033;DHT22;4551;53.164;8.210;2022-08-11T08:59:36;23.10;99.90
9033;DHT22;4551;53.164;8.210;2022-08-11T09:02:16;23.20;99.90
9033;DHT22;4551;53.164;8.210;2022-08-11T09:05:01;23.30;99.90
9033;DHT22;4551;53.164;8.210;2022-08-11T09:07:31;23.40;99.90
9033;DHT22;4551;53.164;8.210;2022-08-11T09:10:08;23.40;99.90
9033;DHT22;4551;53.164;8.210;2022-08-11T09:12:39;23.50;99.90
9033;DHT22;4551;53.164;8.210;2022-08-11T09:15:10;23.60;99.90
9033;DHT22;4551;53.164;8.210;2022-08-11T09:17:43;23.60;99.90
9033;DHT22;4551;53.164;8.210;2022-08-11T09:20:16;23.70;99.90
9033;DHT22;4551;53.164;8.210;2022-08-11T09:22:47;23.70;99.90
9033;DHT22;4551;53.164;8.210;2022-08-11T09:25:57;23.90;99.90
9033;DHT22;4551;53.164;8.210;2022-08-11T09:28:45;23.90;99.90
9033;DHT22;4551;53.164;8.210;2022-08-11T09:31:15;24.00;99.90
9033;DHT22;4551;53.164;8.210;2022-08-11T09:33:43;24.10;99.90
9033;DHT22;4551;53.164;8.210;2022-08-11T09:36:12;24.10;99.90
9033;DHT22;4551;53.164;8.210;2022-08-11T09:38:59;24.20;99.90
9033;DHT22;4551;53.164;8.210;2022-08-11T09:41:48;24.20;99.90
9033;DHT22;4551;53.164;8.210;2022-08-11T09:44:29;24.30;99.90
9033;DHT22;4551;53.164;8.210;2022-08-11T09:47:18;24.40;99.90
9033;DHT22;4551;53.164;8.210;2022-08-11T09:49:50;24.50;99.90
9033;DHT22;4551;53.164;8.210;2022-08-11T09:52:19;24.60;99.90
9033;DHT22;4551;53.164;8.210;2022-08-11T09:54:49;24.60;99.90
9033;DHT22;4551;53.164;8.210;2022-08-11T09:57:20;24.70;99.90
9033;DHT22;4551;53.164;8.210;2022-08-11T10:00:09;24.70;99.90
9033;DHT22;4551;53.164;8.210;2022-08-11T10:02:42;24.80;99.90
9033;DHT22;4551;53.164;8.210;2022-08-11T10:05:14;24.90;99.90
9033;DHT22;4551;53.164;8.210;2022-08-11T10:08:02;25.00;99.90
9033;DHT22;4551;53.164;8.210;2022-08-11T10:10:35;25.10;99.90
9033;DHT22;4551;53.164;8.210;2022-08-11T10:13:06;25.10;99.90
9033;DHT22;4551;53.164;8.210;2022-08-11T10:15:57;25.20;99.90
9033;DHT22;4551;53.164;8.210;2022-08-11T10:18:45;25.30;99.90
9033;DHT22;4551;53.164;8.210;2022-08-11T10:21:27;25.40;99.90
9033;DHT22;4551;53.164;8.210;2022-08-11T10:24:15;25.40;99.90
9033;DHT22;4551;53.164;8.210;2022-08-11T10:27:01;25.50;99.90
9033;DHT22;4551;53.164;8.210;2022-08-11T10:29:34;25.50;99.90
9033;DHT22;4551;53.164;8.210;2022-08-11T10:32:23;25.60;99.90
9033;DHT22;4551;53.164;8.210;2022-08-11T10:35:26;25.70;99.90
9033;DHT22;4551;53.164;8.210;2022-08-11T10:37:55;25.70;99.90
9033;DHT22;4551;53.164;8.210;2022-08-11T10:40:38;25.80;99.90
9033;DHT22;4551;53.164;8.210;2022-08-11T10:43:07;25.80;99.90
9033;DHT22;4551;53.164;8.210;2022-08-11T10:45:44;25.80;99.90
9033;DHT22;4551;53.164;8.210;2022-08-11T10:48:35;25.80;99.90
9033;DHT22;4551;53.164;8.210;2022-08-11T10:51:06;25.90;99.90
9033;DHT22;4551;53.164;8.210;2022-08-11T10:53:42;25.90;99.90
9033;DHT22;4551;53.164;8.210;2022-08-11T10:56:29;26.00;99.90
9033;DHT22;4551;53.164;8.210;2022-08-11T10:59:16;26.10;99.90
9033;DHT22;4551;53.164;8.210;2022-08-11T11:01:46;26.10;99.90
9033;DHT22;4551;53.164;8.210;2022-08-11T11:04:16;26.10;99.90
9033;DHT22;4551;53.164;8.210;2022-08-11T11:06:50;26.20;99.90
9033;DHT22;4551;53.164;8.210;2022-08-11T11:09:23;26.20;99.90
9033;DHT22;4551;53.164;8.210;2022-08-11T11:11:55;26.30;99.90
9033;DHT22;4551;53.164;8.210;2022-08-11T11:14:42;26.40;99.90
9033;DHT22;4551;53.164;8.210;2022-08-11T11:17:37;26.50;99.90
9033;DHT22;4551;53.164;8.210;2022-08-11T11:20:30;26.50;99.90
9033;DHT22;4551;53.164;8.210;2022-08-11T11:23:13;26.60;99.90
9033;DHT22;4551;53.164;8.210;2022-08-11T11:32:15;26.70;99.90
9033;DHT22;4551;53.164;8.210;2022-08-11T11:35:21;26.80;99.90
9033;DHT22;4551;53.164;8.210;2022-08-11T11:37:54;26.90;99.90
9033;DHT22;4551;53.164;8.210;2022-08-11T11:40:31;27.00;99.90
9033;DHT22;4551;53.164;8.210;2022-08-11T11:43:00;26.90;99.90
9033;DHT22;4551;53.164;8.210;2022-08-11T11:45:29;27.10;99.90
9033;DHT22;4551;53.164;8.210;2022-08-11T11:47:59;27.20;99.90
9033;DHT22;4551;53.164;8.210;2022-08-11T11:50:30;27.20;99.90
9033;DHT22;4551;53.164;8.210;2022-08-11T11:53:03;27.20;99.90
9033;DHT22;4551;53.164;8.210;2022-08-11T11:55:32;27.30;99.90
9033;DHT22;4551;53.164;8.210;2022-08-11T11:58:02;27.40;99.90
9033;DHT22;4551;53.164;8.210;2022-08-11T12:00:49;27.60;99.90
9033;DHT22;4551;53.164;8.210;2022-08-11T12:03:35;27.70;99.90
9033;DHT22;4551;53.164;8.210;2022-08-11T12:06:06;27.80;99.90
9033;DHT22;4551;53.164;8.210;2022-08-11T12:08:36;27.80;99.90
9033;DHT22;4551;53.164;8.210;2022-08-11T12:11:08;27.90;99.90
9033;DHT22;4551;53.164;8.210;2022-08-11T12:13:56;27.90;99.90
9033;DHT22;4551;53.164;8.210;2022-08-11T12:16:25;28.00;99.90
9033;DHT22;4551;53.164;8.210;2022-08-11T12:19:02;28.10;99.90
9033;DHT22;4551;53.164;8.210;2022-08-11T12:21:34;28.30;99.90
9033;DHT22;4551;53.164;8.210;2022-08-11T12:24:04;28.40;99.90
9033;DHT22;4551;53.164;8.210;2022-08-11T12:26:56;28.60;99.90
9033;DHT22;4551;53.164;8.210;2022-08-11T12:29:45;28.80;99.90
9033;DHT22;4551;53.164;8.210;2022-08-11T12:32:22;28.90;99.90
9033;DHT22;4551;53.164;8.210;2022-08-11T12:34:51;28.90;99.90
9033;DHT22;4551;53.164;8.210;2022-08-11T12:37:29;29.10;99.90
9033;DHT22;4551;53.164;8.210;2022-08-11T12:40:00;29.10;99.90
9033;DHT22;4551;53.164;8.210;2022-08-11T12:43:11;29.30;99.90
9033;DHT22;4551;53.164;8.210;2022-08-11T12:46:07;29.30;99.90
9033;DHT22;4551;53.164;8.210;2022-08-11T12:48:40;29.60;99.90
9033;DHT22;4551;53.164;8.210;2022-08-11T12:51:32;29.70;99.90
9033;DHT22;4551;53.164;8.210;2022-08-11T12:54:47;29.80;99.90
9033;DHT22;4551;53.164;8.210;2022-08-11T12:57:28;29.90;99.90
9033;DHT22;4551;53.164;8.210;2022-08-11T13:00:16;29.90;99.90
9033;DHT22;4551;53.164;8.210;2022-08-11T13:03:05;30.00;99.90
9033;DHT22;4551;53.164;8.210;2022-08-11T13:05:53;30.00;99.90
9033;DHT22;4551;53.164;8.210;2022-08-11T13:08:23;30.10;99.90
9033;DHT22;4551;53.164;8.210;2022-08-11T13:10:56;30.20;99.90
9033;DHT22;4551;53.164;8.210;2022-08-11T13:13:44;30.40;99.90
9033;DHT22;4551;53.164;8.210;2022-08-11T13:16:23;30.50;99.90
9033;DHT22;4551;53.164;8.210;2022-08-11T13:18:52;30.70;99.90
9033;DHT22;4551;53.164;8.210;2022-08-11T13:21:21;30.70;99.90
9033;DHT22;4551;53.164;8.210;2022-08-11T13:23:52;30.90;99.90
9033;DHT22;4551;53.164;8.210;2022-08-11T13:26:35;31.00;99.90
9033;DHT22;4551;53.164;8.210;2022-08-11T13:29:20;31.10;99.90
9033;DHT22;4551;53.164;8.210;2022-08-11T13:31:49;31.10;99.90
9033;DHT22;4551;53.164;8.210;2022-08-11T13:34:19;31.00;99.90
9033;DHT22;4551;53.164;8.210;2022-08-11T13:36:50;31.20;99.90
9033;DHT22;4551;53.164;8.210;2022-08-11T13:39:19;31.70;99.90
9033;DHT22;4551;53.164;8.210;2022-08-11T13:41:53;31.70;99.90
9033;DHT22;4551;53.164;8.210;2022-08-11T13:44:25;31.90;99.90
9033;DHT22;4551;53.164;8.210;2022-08-11T13:46:56;32.20;99.90
9033;DHT22;4551;53.164;8.210;2022-08-11T13:49:25;32.40;99.90
9033;DHT22;4551;53.164;8.210;2022-08-11T13:51:55;32.50;99.90
9033;DHT22;4551;53.164;8.210;2022-08-11T13:54:26;32.70;99.90
9033;DHT22;4551;53.164;8.210;2022-08-11T13:57:01;33.00;99.90
9033;DHT22;4551;53.164;8.210;2022-08-11T13:59:40;33.20;99.90
9033;DHT22;4551;53.164;8.210;2022-08-11T14:02:21;33.50;99.90
9033;DHT22;4551;53.164;8.210;2022-08-11T14:04:57;33.70;99.90
9033;DHT22;4551;53.164;8.210;2022-08-11T14:07:31;34.00;99.90
9033;DHT22;4551;53.164;8.210;2022-08-11T14:10:02;34.20;99.90
9033;DHT22;4551;53.164;8.210;2022-08-11T14:12:34;34.40;99.80
9033;DHT22;4551;53.164;8.210;2022-08-11T14:15:33;34.60;99.70
9033;DHT22;4551;53.164;8.210;2022-08-11T14:18:04;34.80;99.10
9033;DHT22;4551;53.164;8.210;2022-08-11T14:20:36;34.60;97.20
9033;DHT22;4551;53.164;8.210;2022-08-11T14:23:26;34.20;97.90
9033;DHT22;4551;53.164;8.210;2022-08-11T14:25:56;34.70;98.20
9033;DHT22;4551;53.164;8.210;2022-08-11T14:28:43;34.80;97.70
9033;DHT22;4551;53.164;8.210;2022-08-11T14:31:13;35.10;96.40
9033;DHT22;4551;53.164;8.210;2022-08-11T14:33:43;35.30;96.70
9033;DHT22;4551;53.164;8.210;2022-08-11T14:36:30;35.30;96.50
9033;DHT22;4551;53.164;8.210;2022-08-11T14:39:02;35.30;95.40
9033;DHT22;4551;53.164;8.210;2022-08-11T14:41:31;35.50;95.60
9033;DHT22;4551;53.164;8.210;2022-08-11T14:44:41;35.60;96.20
9033;DHT22;4551;53.164;8.210;2022-08-11T14:47:44;36.10;96.50
9033;DHT22;4551;53.164;8.210;2022-08-11T14:50:16;36.30;95.40
9033;DHT22;4551;53.164;8.210;2022-08-11T14:52:52;36.50;96.90
9033;DHT22;4551;53.164;8.210;2022-08-11T14:55:23;36.70;97.20
9033;DHT22;4551;53.164;8.210;2022-08-11T14:58:10;36.80;97.60
9033;DHT22;4551;53.164;8.210;2022-08-11T15:00:42;36.70;97.10
9033;DHT22;4551;53.164;8.210;2022-08-11T15:03:12;36.80;97.70
9033;DHT22;4551;53.164;8.210;2022-08-11T15:05:45;36.80;97.80
9033;DHT22;4551;53.164;8.210;2022-08-11T15:08:26;36.80;97.80
9033;DHT22;4551;53.164;8.210;2022-08-11T15:11:14;36.70;97.40
9033;DHT22;4551;53.164;8.210;2022-08-11T15:14:02;36.50;97.80
9033;DHT22;4551;53.164;8.210;2022-08-11T15:16:33;36.50;97.00
9033;DHT22;4551;53.164;8.210;2022-08-11T15:19:20;36.30;97.20
9033;DHT22;4551;53.164;8.210;2022-08-11T15:21:49;36.10;96.90
9033;DHT22;4551;53.164;8.210;2022-08-11T15:24:35;36.10;97.40
9033;DHT22;4551;53.164;8.210;2022-08-11T15:27:10;35.60;96.80
9033;DHT22;4551;53.164;8.210;2022-08-11T15:29:57;35.20;96.40
9033;DHT22;4551;53.164;8.210;2022-08-11T15:33:04;34.80;96.60
9033;DHT22;4551;53.164;8.210;2022-08-11T15:35:52;35.30;97.60
9033;DHT22;4551;53.164;8.210;2022-08-11T15:38:42;35.70;97.50
9033;DHT22;4551;53.164;8.210;2022-08-11T15:41:14;35.70;97.00
9033;DHT22;4551;53.164;8.210;2022-08-11T15:44:05;35.60;97.40
9033;DHT22;4551;53.164;8.210;2022-08-11T15:47:14;35.90;97.50
9033;DHT22;4551;53.164;8.210;2022-08-11T15:49:46;36.10;96.90
9033;DHT22;4551;53.164;8.210;2022-08-11T15:52:45;36.10;96.40
9033;DHT22;4551;53.164;8.210;2022-08-11T15:55:15;36.00;96.70
9033;DHT22;4551;53.164;8.210;2022-08-11T15:57:48;36.10;96.50
9033;DHT22;4551;53.164;8.210;2022-08-11T16:00:35;36.10;96.80
9033;DHT22;4551;53.164;8.210;2022-08-11T16:03:34;36.30;96.60
9033;DHT22;4551;53.164;8.210;2022-08-11T16:06:36;36.10;96.40
9033;DHT22;4551;53.164;8.210;2022-08-11T16:09:09;35.90;96.80
9033;DHT22;4551;53.164;8.210;2022-08-11T16:11:45;36.20;97.10
9033;DHT22;4551;53.164;8.210;2022-08-11T16:14:22;36.30;96.90
9033;DHT22;4551;53.164;8.210;2022-08-11T16:17:10;36.40;96.90
9033;DHT22;4551;53.164;8.210;2022-08-11T16:19:40;36.40;96.70
9033;DHT22;4551;53.164;8.210;2022-08-11T16:22:12;36.30;96.50
9033;DHT22;4551;53.164;8.210;2022-08-11T16:24:44;36.10;96.10
9033;DHT22;4551;53.164;8.210;2022-08-11T16:27:36;36.00;96.30
9033;DHT22;4551;53.164;8.210;2022-08-11T16:30:07;35.90;96.70
9033;DHT22;4551;53.164;8.210;2022-08-11T16:32:38;35.70;96.30
9033;DHT22;4551;53.164;8.210;2022-08-11T16:35:09;35.50;96.60
9033;DHT22;4551;53.164;8.210;2022-08-11T16:37:57;35.40;96.60
9033;DHT22;4551;53.164;8.210;2022-08-11T16:40:44;34.90;97.60
9033;DHT22;4551;53.164;8.210;2022-08-11T16:43:16;34.80;98.00
9033;DHT22;4551;53.164;8.210;2022-08-11T16:46:03;34.60;98.20
9033;DHT22;4551;53.164;8.210;2022-08-11T16:48:50;34.30;98.30
9033;DHT22;4551;53.164;8.210;2022-08-11T16:51:20;34.10;98.40
9033;DHT22;4551;53.164;8.210;2022-08-11T16:53:50;33.40;98.40
9033;DHT22;4551;53.164;8.210;2022-08-11T16:56:34;33.40;98.80
9033;DHT22;4551;53.164;8.210;2022-08-11T16:59:06;33.30;98.70
9033;DHT22;4551;53.164;8.210;2022-08-11T17:01:43;33.40;98.70
9033;DHT22;4551;53.164;8.210;2022-08-11T17:04:19;33.40;98.50
9033;DHT22;4551;53.164;8.210;2022-08-11T17:07:06;33.50;98.70
9033;DHT22;4551;53.164;8.210;2022-08-11T17:10:14;33.40;98.80
9033;DHT22;4551;53.164;8.210;2022-08-11T17:13:21;33.40;98.40
9033;DHT22;4551;53.164;8.210;2022-08-11T17:15:52;33.20;98.60
9033;DHT22;4551;53.164;8.210;2022-08-11T17:18:42;33.10;98.40
9033;DHT22;4551;53.164;8.210;2022-08-11T17:21:15;32.90;98.50
9033;DHT22;4551;53.164;8.210;2022-08-11T17:23:47;32.90;98.60
9033;DHT22;4551;53.164;8.210;2022-08-11T17:26:23;32.80;98.60
9033;DHT22;4551;53.164;8.210;2022-08-11T17:28:56;32.70;98.80
9033;DHT22;4551;53.164;8.210;2022-08-11T17:31:26;32.60;98.70
9033;DHT22;4551;53.164;8.210;2022-08-11T17:34:13;32.50;99.00
9033;DHT22;4551;53.164;8.210;2022-08-11T17:36:59;32.40;99.10
9033;DHT22;4551;53.164;8.210;2022-08-11T17:39:30;32.10;99.20
9033;DHT22;4551;53.164;8.210;2022-08-11T17:42:00;32.10;99.60
9033;DHT22;4551;53.164;8.210;2022-08-11T17:44:47;32.10;99.70
9033;DHT22;4551;53.164;8.210;2022-08-11T17:47:33;32.10;99.80
9033;DHT22;4551;53.164;8.210;2022-08-11T17:50:20;32.10;99.90
9033;DHT22;4551;53.164;8.210;2022-08-11T17:52:49;31.90;99.90
9033;DHT22;4551;53.164;8.210;2022-08-11T17:55:36;31.90;99.90
9033;DHT22;4551;53.164;8.210;2022-08-11T17:58:25;31.60;99.90
9033;DHT22;4551;53.164;8.210;2022-08-11T18:01:12;31.70;99.90
9033;DHT22;4551;53.164;8.210;2022-08-11T18:03:43;31.60;99.90
9033;DHT22;4551;53.164;8.210;2022-08-11T18:06:25;31.50;99.90
9033;DHT22;4551;53.164;8.210;2022-08-11T18:09:02;31.50;99.90
9033;DHT22;4551;53.164;8.210;2022-08-11T18:11:49;31.40;99.90
9033;DHT22;4551;53.164;8.210;2022-08-11T18:14:46;31.20;99.90
9033;DHT22;4551;53.164;8.210;2022-08-11T18:17:33;31.20;99.90
9033;DHT22;4551;53.164;8.210;2022-08-11T18:20:20;31.20;99.90
9033;DHT22;4551;53.164;8.210;2022-08-11T18:23:10;31.10;99.90
9033;DHT22;4551;53.164;8.210;2022-08-11T18:26:16;31.00;99.90
9033;DHT22;4551;53.164;8.210;2022-08-11T18:29:06;30.80;99.90
9033;DHT22;4551;53.164;8.210;2022-08-11T18:31:56;30.80;99.90
9033;DHT22;4551;53.164;8.210;2022-08-11T18:34:54;30.70;99.90